sensor_id;sensor_type;location;lat;lon;timestamp;P1;durP1;ratioP1;P2;durP2;ratioP2
6809;SDS011;3443;48.812;9.112;2024-02-14T00:02:16;6.85;;;5.65;;
6809;SDS011;3443;48.812;9.112;2024-02-14T00:04:42;8.67;;;5.80;;
6809;SDS011;3443;48.812;9.112;2024-02-14T00:07:08;5.97;;;5.47;;
6809;SDS011;3443;48.812;9.112;2024-02-14T00:09:33;7.37;;;5.43;;
6809;SDS011;3443;48.812;9.112;2024-02-14T00:11:59;10.00;;;6.43;;
6809;SDS011;3443;48.812;9.112;2024-02-14T00:14:25;7.47;;;5.57;;
6809;SDS011;3443;48.812;9.112;2024-02-14T00:16:50;8.37;;;6.03;;
6809;SDS011;3443;48.812;9.112;2024-02-14T00:19:16;8.77;;;5.70;;
6809;SDS011;3443;48.812;9.112;2024-02-14T00:21:42;7.63;;;5.80;;
6809;SDS011;3443;48.812;9.112;2024-02-14T00:24:07;7.43;;;5.73;;
6809;SDS011;3443;48.812;9.112;2024-02-14T00:26:33;6.37;;;5.33;;
6809;SDS011;3443;48.812;9.112;2024-02-14T00:28:59;5.53;;;4.97;;
6809;SDS011;3443;48.812;9.112;2024-02-14T00:31:25;7.80;;;4.93;;
6809;SDS011;3443;48.812;9.112;2024-02-14T00:33:50;6.83;;;4.80;;
6809;SDS011;3443;48.812;9.112;2024-02-14T00:36:16;7.22;;;5.18;;
6809;SDS011;3443;48.812;9.112;2024-02-14T00:38:42;6.93;;;5.10;;
6809;SDS011;3443;48.812;9.112;2024-02-14T00:41:10;6.18;;;4.78;;
6809;SDS011;3443;48.812;9.112;2024-02-14T00:43:36;6.13;;;4.75;;
6809;SDS011;3443;48.812;9.112;2024-02-14T00:46:01;5.17;;;4.67;;
6809;SDS011;3443;48.812;9.112;2024-02-14T00:48:27;6.57;;;4.77;;
6809;SDS011;3443;48.812;9.112;2024-02-14T00:50:52;6.25;;;4.03;;
6809;SDS011;3443;48.812;9.112;2024-02-14T00:53:19;5.38;;;3.17;;
6809;SDS011;3443;48.812;9.112;2024-02-14T00:55:45;3.00;;;2.60;;
6809;SDS011;3443;48.812;9.112;2024-02-14T00:58:11;3.83;;;2.57;;
6809;SDS011;3443;48.812;9.112;2024-02-14T01:00:37;2.67;;;2.03;;
6809;SDS011;3443;48.812;9.112;2024-02-14T01:03:02;2.60;;;2.00;;
6809;SDS011;3443;48.812;9.112;2024-02-14T01:05:28;2.05;;;1.90;;
6809;SDS011;3443;48.812;9.112;2024-02-14T01:07:54;3.35;;;2.35;;
6809;SDS011;3443;48.812;9.112;2024-02-14T01:10:20;2.28;;;2.05;;
6809;SDS011;3443;48.812;9.112;2024-02-14T01:12:46;1.88;;;1.77;;
6809;SDS011;3443;48.812;9.112;2024-02-14T01:15:11;1.27;;;1.23;;
6809;SDS011;3443;48.812;9.112;2024-02-14T01:17:37;2.95;;;1.58;;
6809;SDS011;3443;48.812;9.112;2024-02-14T01:20:04;2.50;;;1.58;;
6809;SDS011;3443;48.812;9.112;2024-02-14T01:22:31;1.70;;;1.60;;
6809;SDS011;3443;48.812;9.112;2024-02-14T01:24:57;2.22;;;1.48;;
6809;SDS011;3443;48.812;9.112;2024-02-14T01:27:24;3.70;;;1.48;;
6809;SDS011;3443;48.812;9.112;2024-02-14T01:29:49;1.90;;;1.80;;
6809;SDS011;3443;48.812;9.112;2024-02-14T01:32:15;4.05;;;1.77;;
6809;SDS011;3443;48.812;9.112;2024-02-14T01:34:40;1.70;;;1.38;;
6809;SDS011;3443;48.812;9.112;2024-02-14T01:37:09;1.52;;;1.38;;
6809;SDS011;3443;48.812;9.112;2024-02-14T01:39:35;3.05;;;1.85;;
6809;SDS011;3443;48.812;9.112;2024-02-14T01:42:00;1.85;;;1.58;;
6809;SDS011;3443;48.812;9.112;2024-02-14T01:44:30;1.25;;;1.23;;
6809;SDS011;3443;48.812;9.112;2024-02-14T01:46:55;3.38;;;1.58;;
6809;SDS011;3443;48.812;9.112;2024-02-14T01:49:21;4.55;;;1.25;;
6809;SDS011;3443;48.812;9.112;2024-02-14T01:51:47;2.58;;;1.65;;
6809;SDS011;3443;48.812;9.112;2024-02-14T01:54:13;3.05;;;1.27;;
6809;SDS011;3443;48.812;9.112;2024-02-14T01:56:40;2.40;;;1.48;;
6809;SDS011;3443;48.812;9.112;2024-02-14T01:59:06;1.27;;;1.15;;
6809;SDS011;3443;48.812;9.112;2024-02-14T02:01:34;1.70;;;1.50;;
6809;SDS011;3443;48.812;9.112;2024-02-14T02:04:00;1.92;;;1.17;;
6809;SDS011;3443;48.812;9.112;2024-02-14T02:06:26;1.92;;;1.50;;
6809;SDS011;3443;48.812;9.112;2024-02-14T02:08:52;3.33;;;1.40;;
6809;SDS011;3443;48.812;9.112;2024-02-14T02:11:18;1.52;;;1.23;;
6809;SDS011;3443;48.812;9.112;2024-02-14T02:13:43;3.05;;;1.30;;
6809;SDS011;3443;48.812;9.112;2024-02-14T02:16:09;1.80;;;1.30;;
6809;SDS011;3443;48.812;9.112;2024-02-14T02:18:35;1.63;;;1.42;;
6809;SDS011;3443;48.812;9.112;2024-02-14T02:21:00;1.48;;;1.38;;
6809;SDS011;3443;48.812;9.112;2024-02-14T02:23:31;3.42;;;1.67;;
6809;SDS011;3443;48.812;9.112;2024-02-14T02:26:00;2.38;;;1.50;;
6809;SDS011;3443;48.812;9.112;2024-02-14T02:28:27;1.90;;;1.30;;
6809;SDS011;3443;48.812;9.112;2024-02-14T02:30:52;2.67;;;1.33;;
6809;SDS011;3443;48.812;9.112;2024-02-14T02:33:20;1.48;;;1.10;;
6809;SDS011;3443;48.812;9.112;2024-02-14T02:35:47;3.25;;;2.00;;
6809;SDS011;3443;48.812;9.112;2024-02-14T02:38:13;2.00;;;1.83;;
6809;SDS011;3443;48.812;9.112;2024-02-14T02:40:39;2.33;;;1.70;;
6809;SDS011;3443;48.812;9.112;2024-02-14T02:43:05;2.20;;;1.30;;
6809;SDS011;3443;48.812;9.112;2024-02-14T02:45:30;1.70;;;1.60;;
6809;SDS011;3443;48.812;9.112;2024-02-14T02:47:56;2.60;;;1.48;;
6809;SDS011;3443;48.812;9.112;2024-02-14T02:50:22;3.53;;;1.48;;
6809;SDS011;3443;48.812;9.112;2024-02-14T02:52:47;2.00;;;1.60;;
6809;SDS011;3443;48.812;9.112;2024-02-14T02:55:13;2.65;;;1.40;;
6809;SDS011;3443;48.812;9.112;2024-02-14T02:57:42;1.52;;;1.25;;
6809;SDS011;3443;48.812;9.112;2024-02-14T03:00:09;3.72;;;1.60;;
6809;SDS011;3443;48.812;9.112;2024-02-14T03:02:37;1.60;;;1.50;;
6809;SDS011;3443;48.812;9.112;2024-02-14T03:05:05;2.58;;;1.25;;
6809;SDS011;3443;48.812;9.112;2024-02-14T03:07:35;1.48;;;1.38;;
6809;SDS011;3443;48.812;9.112;2024-02-14T03:10:02;3.15;;;1.50;;
6809;SDS011;3443;48.812;9.112;2024-02-14T03:12:28;2.55;;;1.10;;
6809;SDS011;3443;48.812;9.112;2024-02-14T03:14:55;2.30;;;1.48;;
6809;SDS011;3443;48.812;9.112;2024-02-14T03:17:23;2.70;;;1.10;;
6809;SDS011;3443;48.812;9.112;2024-02-14T03:19:48;1.70;;;1.33;;
6809;SDS011;3443;48.812;9.112;2024-02-14T03:22:16;2.90;;;1.20;;
6809;SDS011;3443;48.812;9.112;2024-02-14T03:24:43;2.70;;;1.20;;
6809;SDS011;3443;48.812;9.112;2024-02-14T03:27:11;1.77;;;1.13;;
6809;SDS011;3443;48.812;9.112;2024-02-14T03:29:37;1.67;;;1.20;;
6809;SDS011;3443;48.812;9.112;2024-02-14T03:32:04;1.85;;;1.40;;
6809;SDS011;3443;48.812;9.112;2024-02-14T03:34:30;1.23;;;1.13;;
6809;SDS011;3443;48.812;9.112;2024-02-14T03:36:58;2.08;;;1.25;;
6809;SDS011;3443;48.812;9.112;2024-02-14T03:39:25;1.70;;;1.30;;
6809;SDS011;3443;48.812;9.112;2024-02-14T03:41:51;3.67;;;1.35;;
6809;SDS011;3443;48.812;9.112;2024-02-14T03:44:17;1.52;;;1.40;;
6809;SDS011;3443;48.812;9.112;2024-02-14T03:46:43;2.47;;;1.20;;
6809;SDS011;3443;48.812;9.112;2024-02-14T03:49:09;4.68;;;1.45;;
6809;SDS011;3443;48.812;9.112;2024-02-14T03:51:34;2.47;;;1.50;;
6809;SDS011;3443;48.812;9.112;2024-02-14T03:54:00;5.18;;;1.30;;
6809;SDS011;3443;48.812;9.112;2024-02-14T03:56:26;1.35;;;1.25;;
6809;SDS011;3443;48.812;9.112;2024-02-14T03:58:51;1.70;;;1.20;;
6809;SDS011;3443;48.812;9.112;2024-02-14T04:01:17;3.40;;;1.17;;
6809;SDS011;3443;48.812;9.112;2024-02-14T04:03:43;1.40;;;0.82;;
6809;SDS011;3443;48.812;9.112;2024-02-14T04:06:10;1.38;;;1.10;;
6809;SDS011;3443;48.812;9.112;2024-02-14T04:08:36;4.88;;;1.20;;
6809;SDS011;3443;48.812;9.112;2024-02-14T04:11:01;1.25;;;1.10;;
6809;SDS011;3443;48.812;9.112;2024-02-14T04:13:27;2.55;;;1.42;;
6809;SDS011;3443;48.812;9.112;2024-02-14T04:15:53;2.22;;;1.20;;
6809;SDS011;3443;48.812;9.112;2024-02-14T04:18:18;1.60;;;1.15;;
6809;SDS011;3443;48.812;9.112;2024-02-14T04:20:44;1.85;;;1.10;;
6809;SDS011;3443;48.812;9.112;2024-02-14T04:23:10;2.42;;;1.15;;
6809;SDS011;3443;48.812;9.112;2024-02-14T04:25:35;1.85;;;1.33;;
6809;SDS011;3443;48.812;9.112;2024-02-14T04:28:04;1.70;;;1.00;;
6809;SDS011;3443;48.812;9.112;2024-02-14T04:30:30;1.67;;;1.33;;
6809;SDS011;3443;48.812;9.112;2024-02-14T04:32:55;2.33;;;1.30;;
6809;SDS011;3443;48.812;9.112;2024-02-14T04:35:21;1.98;;;1.33;;
6809;SDS011;3443;48.812;9.112;2024-02-14T04:37:47;1.67;;;1.55;;
6809;SDS011;3443;48.812;9.112;2024-02-14T04:40:14;2.30;;;1.00;;
6809;SDS011;3443;48.812;9.112;2024-02-14T04:42:43;3.03;;;1.40;;
6809;SDS011;3443;48.812;9.112;2024-02-14T04:45:08;1.38;;;1.30;;
6809;SDS011;3443;48.812;9.112;2024-02-14T04:47:34;2.25;;;1.23;;
6809;SDS011;3443;48.812;9.112;2024-02-14T04:50:00;2.50;;;1.02;;
6809;SDS011;3443;48.812;9.112;2024-02-14T04:52:29;3.60;;;1.15;;
6809;SDS011;3443;48.812;9.112;2024-02-14T04:54:54;2.50;;;1.10;;
6809;SDS011;3443;48.812;9.112;2024-02-14T04:57:21;2.75;;;1.08;;
6809;SDS011;3443;48.812;9.112;2024-02-14T04:59:47;1.90;;;1.00;;
6809;SDS011;3443;48.812;9.112;2024-02-14T05:02:12;1.38;;;0.93;;
6809;SDS011;3443;48.812;9.112;2024-02-14T05:04:38;1.40;;;0.80;;
6809;SDS011;3443;48.812;9.112;2024-02-14T05:07:04;1.48;;;0.80;;
6809;SDS011;3443;48.812;9.112;2024-02-14T05:09:30;2.90;;;1.00;;
6809;SDS011;3443;48.812;9.112;2024-02-14T05:11:55;1.48;;;0.80;;
6809;SDS011;3443;48.812;9.112;2024-02-14T05:14:21;0.90;;;0.90;;
6809;SDS011;3443;48.812;9.112;2024-02-14T05:16:47;1.95;;;0.98;;
6809;SDS011;3443;48.812;9.112;2024-02-14T05:19:12;0.90;;;0.90;;
6809;SDS011;3443;48.812;9.112;2024-02-14T05:21:38;2.47;;;0.90;;
6809;SDS011;3443;48.812;9.112;2024-02-14T05:24:04;0.85;;;0.68;;
6809;SDS011;3443;48.812;9.112;2024-02-14T05:26:30;3.20;;;1.15;;
6809;SDS011;3443;48.812;9.112;2024-02-14T05:28:56;2.10;;;0.90;;
6809;SDS011;3443;48.812;9.112;2024-02-14T05:31:21;2.28;;;0.73;;
6809;SDS011;3443;48.812;9.112;2024-02-14T05:33:48;2.15;;;0.80;;
6809;SDS011;3443;48.812;9.112;2024-02-14T05:36:14;0.77;;;0.77;;
6809;SDS011;3443;48.812;9.112;2024-02-14T05:38:39;1.55;;;0.80;;
6809;SDS011;3443;48.812;9.112;2024-02-14T05:41:05;1.45;;;0.80;;
6809;SDS011;3443;48.812;9.112;2024-02-14T05:43:32;1.33;;;1.00;;
6809;SDS011;3443;48.812;9.112;2024-02-14T05:45:59;2.28;;;0.82;;
6809;SDS011;3443;48.812;9.112;2024-02-14T05:48:25;0.93;;;0.70;;
6809;SDS011;3443;48.812;9.112;2024-02-14T05:50:51;2.53;;;0.90;;
6809;SDS011;3443;48.812;9.112;2024-02-14T05:53:16;0.95;;;0.55;;
6809;SDS011;3443;48.812;9.112;2024-02-14T05:55:42;1.77;;;0.93;;
6809;SDS011;3443;48.812;9.112;2024-02-14T05:58:08;1.27;;;0.80;;
6809;SDS011;3443;48.812;9.112;2024-02-14T06:00:34;1.17;;;0.90;;
6809;SDS011;3443;48.812;9.112;2024-02-14T06:02:59;1.00;;;0.95;;
6809;SDS011;3443;48.812;9.112;2024-02-14T06:05:25;1.08;;;0.98;;
6809;SDS011;3443;48.812;9.112;2024-02-14T06:07:51;1.60;;;0.82;;
6809;SDS011;3443;48.812;9.112;2024-02-14T06:10:17;2.47;;;0.80;;
6809;SDS011;3443;48.812;9.112;2024-02-14T06:12:43;2.17;;;0.90;;
6809;SDS011;3443;48.812;9.112;2024-02-14T06:15:09;1.55;;;0.80;;
6809;SDS011;3443;48.812;9.112;2024-02-14T06:17:35;1.02;;;0.75;;
6809;SDS011;3443;48.812;9.112;2024-02-14T06:20:00;2.03;;;1.08;;
6809;SDS011;3443;48.812;9.112;2024-02-14T06:22:31;1.23;;;0.88;;
6809;SDS011;3443;48.812;9.112;2024-02-14T06:24:57;0.65;;;0.63;;
6809;SDS011;3443;48.812;9.112;2024-02-14T06:27:23;1.98;;;0.88;;
6809;SDS011;3443;48.812;9.112;2024-02-14T06:29:49;2.67;;;0.93;;
6809;SDS011;3443;48.812;9.112;2024-02-14T06:32:14;2.40;;;1.00;;
6809;SDS011;3443;48.812;9.112;2024-02-14T06:34:40;1.25;;;0.80;;
6809;SDS011;3443;48.812;9.112;2024-02-14T06:37:05;0.70;;;0.70;;
6809;SDS011;3443;48.812;9.112;2024-02-14T06:39:31;0.68;;;0.68;;
6809;SDS011;3443;48.812;9.112;2024-02-14T06:41:57;0.60;;;0.60;;
6809;SDS011;3443;48.812;9.112;2024-02-14T06:44:23;2.03;;;0.85;;
6809;SDS011;3443;48.812;9.112;2024-02-14T06:49:37;1.42;;;0.63;;
6809;SDS011;3443;48.812;9.112;2024-02-14T06:52:03;1.05;;;0.77;;
6809;SDS011;3443;48.812;9.112;2024-02-14T06:54:28;1.38;;;1.10;;
6809;SDS011;3443;48.812;9.112;2024-02-14T06:56:54;1.65;;;0.98;;
6809;SDS011;3443;48.812;9.112;2024-02-14T06:59:20;1.17;;;1.00;;
6809;SDS011;3443;48.812;9.112;2024-02-14T07:01:45;1.42;;;0.85;;
6809;SDS011;3443;48.812;9.112;2024-02-14T07:04:11;1.92;;;0.63;;
6809;SDS011;3443;48.812;9.112;2024-02-14T07:06:37;1.25;;;0.60;;
6809;SDS011;3443;48.812;9.112;2024-02-14T07:09:03;1.13;;;0.50;;
6809;SDS011;3443;48.812;9.112;2024-02-14T07:11:29;1.38;;;0.60;;
6809;SDS011;3443;48.812;9.112;2024-02-14T07:13:55;1.30;;;0.70;;
6809;SDS011;3443;48.812;9.112;2024-02-14T07:16:23;3.05;;;0.90;;
6809;SDS011;3443;48.812;9.112;2024-02-14T07:18:49;1.17;;;1.08;;
6809;SDS011;3443;48.812;9.112;2024-02-14T07:21:15;1.60;;;0.60;;
6809;SDS011;3443;48.812;9.112;2024-02-14T07:23:41;1.10;;;0.95;;
6809;SDS011;3443;48.812;9.112;2024-02-14T07:26:07;1.85;;;1.40;;
6809;SDS011;3443;48.812;9.112;2024-02-14T07:28:33;1.35;;;1.00;;
6809;SDS011;3443;48.812;9.112;2024-02-14T07:30:58;1.35;;;1.20;;
6809;SDS011;3443;48.812;9.112;2024-02-14T07:33:24;1.10;;;1.00;;
6809;SDS011;3443;48.812;9.112;2024-02-14T07:35:49;1.75;;;1.20;;
6809;SDS011;3443;48.812;9.112;2024-02-14T07:38:15;6.25;;;1.55;;
6809;SDS011;3443;48.812;9.112;2024-02-14T07:40:41;1.40;;;1.08;;
6809;SDS011;3443;48.812;9.112;2024-02-14T07:43:07;2.63;;;1.10;;
6809;SDS011;3443;48.812;9.112;2024-02-14T07:45:33;1.90;;;1.20;;
6809;SDS011;3443;48.812;9.112;2024-02-14T07:47:58;2.10;;;1.30;;
6809;SDS011;3443;48.812;9.112;2024-02-14T07:50:24;2.05;;;1.25;;
6809;SDS011;3443;48.812;9.112;2024-02-14T07:52:50;2.67;;;1.20;;
6809;SDS011;3443;48.812;9.112;2024-02-14T07:55:15;4.53;;;0.98;;
6809;SDS011;3443;48.812;9.112;2024-02-14T07:57:41;2.60;;;1.20;;
6809;SDS011;3443;48.812;9.112;2024-02-14T08:00:07;1.38;;;0.95;;
6809;SDS011;3443;48.812;9.112;2024-02-14T08:02:34;1.58;;;0.80;;
6809;SDS011;3443;48.812;9.112;2024-02-14T08:05:01;0.80;;;0.80;;
6809;SDS011;3443;48.812;9.112;2024-02-14T08:07:26;1.50;;;0.73;;
6809;SDS011;3443;48.812;9.112;2024-02-14T08:09:52;0.90;;;0.90;;
6809;SDS011;3443;48.812;9.112;2024-02-14T08:12:19;0.75;;;0.75;;
6809;SDS011;3443;48.812;9.112;2024-02-14T08:14:44;1.00;;;0.70;;
6809;SDS011;3443;48.812;9.112;2024-02-14T08:17:10;2.08;;;0.60;;
6809;SDS011;3443;48.812;9.112;2024-02-14T08:19:35;1.48;;;0.60;;
6809;SDS011;3443;48.812;9.112;2024-02-14T08:22:01;1.63;;;0.85;;
6809;SDS011;3443;48.812;9.112;2024-02-14T08:24:27;1.67;;;0.98;;
6809;SDS011;3443;48.812;9.112;2024-02-14T08:26:56;2.47;;;0.55;;
6809;SDS011;3443;48.812;9.112;2024-02-14T08:29:22;0.93;;;0.50;;
6809;SDS011;3443;48.812;9.112;2024-02-14T08:31:48;1.65;;;0.85;;
6809;SDS011;3443;48.812;9.112;2024-02-14T08:34:14;2.35;;;0.70;;
6809;SDS011;3443;48.812;9.112;2024-02-14T08:36:40;2.78;;;0.70;;
6809;SDS011;3443;48.812;9.112;2024-02-14T08:39:09;1.55;;;0.60;;
6809;SDS011;3443;48.812;9.112;2024-02-14T08:41:36;1.40;;;0.80;;
6809;SDS011;3443;48.812;9.112;2024-02-14T08:44:02;1.27;;;0.70;;
6809;SDS011;3443;48.812;9.112;2024-02-14T08:46:29;0.68;;;0.65;;
6809;SDS011;3443;48.812;9.112;2024-02-14T08:48:56;3.10;;;0.82;;
6809;SDS011;3443;48.812;9.112;2024-02-14T08:51:21;2.55;;;0.90;;
6809;SDS011;3443;48.812;9.112;2024-02-14T08:53:47;1.15;;;0.70;;
6809;SDS011;3443;48.812;9.112;2024-02-14T08:56:13;0.93;;;0.63;;
6809;SDS011;3443;48.812;9.112;2024-02-14T08:58:38;1.17;;;1.17;;
6809;SDS011;3443;48.812;9.112;2024-02-14T09:01:04;2.25;;;1.23;;
6809;SDS011;3443;48.812;9.112;2024-02-14T09:03:30;1.35;;;1.25;;
6809;SDS011;3443;48.812;9.112;2024-02-14T09:05:56;2.53;;;1.10;;
6809;SDS011;3443;48.812;9.112;2024-02-14T09:08:22;2.38;;;1.10;;
6809;SDS011;3443;48.812;9.112;2024-02-14T09:10:49;1.13;;;0.88;;
6809;SDS011;3443;48.812;9.112;2024-02-14T09:13:15;1.02;;;0.75;;
6809;SDS011;3443;48.812;9.112;2024-02-14T09:15:41;1.48;;;0.75;;
6809;SDS011;3443;48.812;9.112;2024-02-14T09:18:06;0.60;;;0.60;;
6809;SDS011;3443;48.812;9.112;2024-02-14T09:20:32;0.52;;;0.50;;
6809;SDS011;3443;48.812;9.112;2024-02-14T09:22:57;0.80;;;0.55;;
6809;SDS011;3443;48.812;9.112;2024-02-14T09:25:23;1.95;;;0.75;;
6809;SDS011;3443;48.812;9.112;2024-02-14T09:27:50;0.75;;;0.50;;
6809;SDS011;3443;48.812;9.112;2024-02-14T09:30:16;0.63;;;0.60;;
6809;SDS011;3443;48.812;9.112;2024-02-14T09:32:43;1.52;;;0.57;;
6809;SDS011;3443;48.812;9.112;2024-02-14T09:35:09;0.50;;;0.50;;
6809;SDS011;3443;48.812;9.112;2024-02-14T09:37:35;0.75;;;0.70;;
6809;SDS011;3443;48.812;9.112;2024-02-14T09:40:03;0.80;;;0.45;;
6809;SDS011;3443;48.812;9.112;2024-02-14T09:43:12;0.60;;;0.60;;
6809;SDS011;3443;48.812;9.112;2024-02-14T09:45:28;1.20;;;0.60;;
6809;SDS011;3443;48.812;9.112;2024-02-14T09:47:55;0.43;;;0.43;;
6809;SDS011;3443;48.812;9.112;2024-02-14T09:50:22;0.57;;;0.57;;
6809;SDS011;3443;48.812;9.112;2024-02-14T09:52:49;1.45;;;0.50;;
6809;SDS011;3443;48.812;9.112;2024-02-14T09:55:16;1.02;;;0.50;;
6809;SDS011;3443;48.812;9.112;2024-02-14T09:57:42;1.52;;;0.60;;
6809;SDS011;3443;48.812;9.112;2024-02-14T10:00:11;1.95;;;0.60;;
6809;SDS011;3443;48.812;9.112;2024-02-14T10:02:39;0.50;;;0.50;;
6809;SDS011;3443;48.812;9.112;2024-02-14T10:05:05;2.42;;;0.57;;
6809;SDS011;3443;48.812;9.112;2024-02-14T10:07:39;0.50;;;0.50;;
6809;SDS011;3443;48.812;9.112;2024-02-14T10:10:06;0.90;;;0.63;;
6809;SDS011;3443;48.812;9.112;2024-02-14T10:12:32;3.75;;;0.70;;
6809;SDS011;3443;48.812;9.112;2024-02-14T10:14:57;0.40;;;0.40;;
6809;SDS011;3443;48.812;9.112;2024-02-14T10:17:23;0.60;;;0.60;;
6809;SDS011;3443;48.812;9.112;2024-02-14T10:19:58;1.45;;;0.60;;
6809;SDS011;3443;48.812;9.112;2024-02-14T10:22:33;0.70;;;0.50;;
6809;SDS011;3443;48.812;9.112;2024-02-14T10:25:00;1.52;;;0.60;;
6809;SDS011;3443;48.812;9.112;2024-02-14T10:27:27;0.60;;;0.60;;
6809;SDS011;3443;48.812;9.112;2024-02-14T10:29:55;0.95;;;0.50;;
6809;SDS011;3443;48.812;9.112;2024-02-14T10:32:22;1.80;;;0.70;;
6809;SDS011;3443;48.812;9.112;2024-02-14T10:34:49;1.00;;;0.60;;
6809;SDS011;3443;48.812;9.112;2024-02-14T10:37:15;0.50;;;0.40;;
6809;SDS011;3443;48.812;9.112;2024-02-14T10:39:43;0.70;;;0.70;;
6809;SDS011;3443;48.812;9.112;2024-02-14T10:42:12;0.85;;;0.60;;
6809;SDS011;3443;48.812;9.112;2024-02-14T10:44:38;0.82;;;0.65;;
6809;SDS011;3443;48.812;9.112;2024-02-14T10:47:05;0.50;;;0.50;;
6809;SDS011;3443;48.812;9.112;2024-02-14T10:49:35;1.50;;;0.70;;
6809;SDS011;3443;48.812;9.112;2024-02-14T10:52:04;1.58;;;0.57;;
6809;SDS011;3443;48.812;9.112;2024-02-14T10:54:32;0.40;;;0.40;;
6809;SDS011;3443;48.812;9.112;2024-02-14T10:57:02;1.17;;;0.38;;
6809;SDS011;3443;48.812;9.112;2024-02-14T10:59:36;0.75;;;0.50;;
6809;SDS011;3443;48.812;9.112;2024-02-14T11:02:06;1.00;;;0.60;;
6809;SDS011;3443;48.812;9.112;2024-02-14T11:04:32;1.23;;;0.75;;
6809;SDS011;3443;48.812;9.112;2024-02-14T11:06:58;1.10;;;0.60;;
6809;SDS011;3443;48.812;9.112;2024-02-14T11:09:35;2.67;;;0.90;;
6809;SDS011;3443;48.812;9.112;2024-02-14T11:12:02;1.92;;;0.40;;
6809;SDS011;3443;48.812;9.112;2024-02-14T11:14:32;1.48;;;0.40;;
6809;SDS011;3443;48.812;9.112;2024-02-14T11:17:00;0.88;;;0.30;;
6809;SDS011;3443;48.812;9.112;2024-02-14T11:19:35;2.22;;;0.40;;
6809;SDS011;3443;48.812;9.112;2024-02-14T11:25:05;0.75;;;0.30;;
6809;SDS011;3443;48.812;9.112;2024-02-14T11:27:32;0.38;;;0.32;;
6809;SDS011;3443;48.812;9.112;2024-02-14T11:29:58;3.03;;;0.30;;
6809;SDS011;3443;48.812;9.112;2024-02-14T11:32:26;0.45;;;0.45;;
6809;SDS011;3443;48.812;9.112;2024-02-14T11:34:56;0.35;;;0.35;;
6809;SDS011;3443;48.812;9.112;2024-02-14T11:37:28;0.77;;;0.50;;
6809;SDS011;3443;48.812;9.112;2024-02-14T11:39:54;0.32;;;0.30;;
6809;SDS011;3443;48.812;9.112;2024-02-14T11:42:22;0.63;;;0.32;;
6809;SDS011;3443;48.812;9.112;2024-02-14T11:44:48;1.50;;;0.40;;
6809;SDS011;3443;48.812;9.112;2024-02-14T11:47:14;1.10;;;0.52;;
6809;SDS011;3443;48.812;9.112;2024-02-14T11:49:40;1.05;;;0.30;;
6809;SDS011;3443;48.812;9.112;2024-02-14T11:52:09;0.38;;;0.30;;
6809;SDS011;3443;48.812;9.112;2024-02-14T11:54:36;0.43;;;0.43;;
6809;SDS011;3443;48.812;9.112;2024-02-14T11:57:02;0.70;;;0.70;;
6809;SDS011;3443;48.812;9.112;2024-02-14T11:59:28;0.63;;;0.63;;
6809;SDS011;3443;48.812;9.112;2024-02-14T12:01:54;0.77;;;0.75;;
6809;SDS011;3443;48.812;9.112;2024-02-14T12:04:23;0.80;;;0.50;;
6809;SDS011;3443;48.812;9.112;2024-02-14T12:06:49;0.43;;;0.43;;
6809;SDS011;3443;48.812;9.112;2024-02-14T12:09:14;1.58;;;0.60;;
6809;SDS011;3443;48.812;9.112;2024-02-14T12:11:41;0.75;;;0.40;;
6809;SDS011;3443;48.812;9.112;2024-02-14T12:14:11;0.50;;;0.50;;
6809;SDS011;3443;48.812;9.112;2024-02-14T12:16:38;0.45;;;0.45;;
6809;SDS011;3443;48.812;9.112;2024-02-14T12:19:08;0.40;;;0.40;;
6809;SDS011;3443;48.812;9.112;2024-02-14T12:21:41;0.85;;;0.30;;
6809;SDS011;3443;48.812;9.112;2024-02-14T12:24:08;0.45;;;0.40;;
6809;SDS011;3443;48.812;9.112;2024-02-14T12:26:35;0.52;;;0.25;;
6809;SDS011;3443;48.812;9.112;2024-02-14T12:29:02;2.13;;;0.30;;
6809;SDS011;3443;48.812;9.112;2024-02-14T12:31:29;0.20;;;0.20;;
6809;SDS011;3443;48.812;9.112;2024-02-14T12:33:56;0.30;;;0.30;;
6809;SDS011;3443;48.812;9.112;2024-02-14T12:36:27;0.20;;;0.20;;
6809;SDS011;3443;48.812;9.112;2024-02-14T12:38:56;0.38;;;0.30;;
6809;SDS011;3443;48.812;9.112;2024-02-14T12:41:22;0.65;;;0.22;;
6809;SDS011;3443;48.812;9.112;2024-02-14T12:43:54;0.35;;;0.20;;
6809;SDS011;3443;48.812;9.112;2024-02-14T12:46:21;0.65;;;0.63;;
6809;SDS011;3443;48.812;9.112;2024-02-14T12:48:47;0.45;;;0.20;;
6809;SDS011;3443;48.812;9.112;2024-02-14T12:51:16;1.02;;;0.20;;
6809;SDS011;3443;48.812;9.112;2024-02-14T12:53:42;0.20;;;0.20;;
6809;SDS011;3443;48.812;9.112;2024-02-14T12:56:07;0.77;;;0.17;;
6809;SDS011;3443;48.812;9.112;2024-02-14T12:58:33;0.10;;;0.10;;
6809;SDS011;3443;48.812;9.112;2024-02-14T13:00:59;0.30;;;0.10;;
6809;SDS011;3443;48.812;9.112;2024-02-14T13:03:25;0.20;;;0.20;;
6809;SDS011;3443;48.812;9.112;2024-02-14T13:05:52;1.08;;;0.10;;
6809;SDS011;3443;48.812;9.112;2024-02-14T13:08:20;0.10;;;0.10;;
6809;SDS011;3443;48.812;9.112;2024-02-14T13:10:46;0.20;;;0.20;;
6809;SDS011;3443;48.812;9.112;2024-02-14T13:13:12;0.20;;;0.20;;
6809;SDS011;3443;48.812;9.112;2024-02-14T13:15:39;0.20;;;0.20;;
6809;SDS011;3443;48.812;9.112;2024-02-14T13:18:05;0.75;;;0.10;;
6809;SDS011;3443;48.812;9.112;2024-02-14T13:20:31;0.20;;;0.20;;
6809;SDS011;3443;48.812;9.112;2024-02-14T13:22:57;0.43;;;0.20;;
6809;SDS011;3443;48.812;9.112;2024-02-14T13:25:23;0.90;;;0.30;;
6809;SDS011;3443;48.812;9.112;2024-02-14T13:27:48;0.20;;;0.20;;
6809;SDS011;3443;48.812;9.112;2024-02-14T13:30:14;0.20;;;0.20;;
6809;SDS011;3443;48.812;9.112;2024-02-14T13:32:40;0.52;;;0.20;;
6809;SDS011;3443;48.812;9.112;2024-02-14T13:35:05;0.30;;;0.30;;
6809;SDS011;3443;48.812;9.112;2024-02-14T13:37:32;0.20;;;0.20;;
6809;SDS011;3443;48.812;9.112;2024-02-14T13:39:57;0.20;;;0.20;;
6809;SDS011;3443;48.812;9.112;2024-02-14T13:42:23;0.17;;;0.10;;
6809;SDS011;3443;48.812;9.112;2024-02-14T13:44:49;0.10;;;0.10;;
6809;SDS011;3443;48.812;9.112;2024-02-14T13:47:18;0.10;;;0.10;;
6809;SDS011;3443;48.812;9.112;2024-02-14T13:49:44;0.17;;;0.17;;
6809;SDS011;3443;48.812;9.112;2024-02-14T13:52:09;0.10;;;0.10;;
6809;SDS011;3443;48.812;9.112;2024-02-14T13:54:35;0.13;;;0.13;;
6809;SDS011;3443;48.812;9.112;2024-02-14T13:57:01;1.10;;;0.10;;
6809;SDS011;3443;48.812;9.112;2024-02-14T13:59:27;0.10;;;0.10;;
6809;SDS011;3443;48.812;9.112;2024-02-14T14:01:53;0.80;;;0.20;;
6809;SDS011;3443;48.812;9.112;2024-02-14T14:04:19;0.10;;;0.10;;
6809;SDS011;3443;48.812;9.112;2024-02-14T14:06:45;0.10;;;0.10;;
6809;SDS011;3443;48.812;9.112;2024-02-14T14:09:12;0.10;;;0.10;;
6809;SDS011;3443;48.812;9.112;2024-02-14T14:11:38;0.10;;;0.10;;
6809;SDS011;3443;48.812;9.112;2024-02-14T14:14:04;0.17;;;0.17;;
6809;SDS011;3443;48.812;9.112;2024-02-14T14:16:30;0.10;;;0.10;;
6809;SDS011;3443;48.812;9.112;2024-02-14T14:18:57;0.10;;;0.10;;
6809;SDS011;3443;48.812;9.112;2024-02-14T14:21:23;0.10;;;0.10;;
6809;SDS011;3443;48.812;9.112;2024-02-14T14:23:49;0.08;;;0.08;;
6809;SDS011;3443;48.812;9.112;2024-02-14T14:26:15;0.10;;;0.10;;
6809;SDS011;3443;48.812;9.112;2024-02-14T14:28:40;0.20;;;0.20;;
6809;SDS011;3443;48.812;9.112;2024-02-14T14:31:07;1.80;;;0.15;;
6809;SDS011;3443;48.812;9.112;2024-02-14T14:33:36;1.00;;;0.13;;
6809;SDS011;3443;48.812;9.112;2024-02-14T14:36:01;0.00;;;0.00;;
6809;SDS011;3443;48.812;9.112;2024-02-14T14:38:28;1.80;;;0.10;;
6809;SDS011;3443;48.812;9.112;2024-02-14T14:40:54;0.10;;;0.10;;
6809;SDS011;3443;48.812;9.112;2024-02-14T14:43:20;0.40;;;0.40;;
6809;SDS011;3443;48.812;9.112;2024-02-14T14:45:46;1.95;;;0.25;;
6809;SDS011;3443;48.812;9.112;2024-02-14T14:48:12;0.95;;;0.20;;
6809;SDS011;3443;48.812;9.112;2024-02-14T14:50:37;0.10;;;0.10;;
6809;SDS011;3443;48.812;9.112;2024-02-14T14:53:03;0.30;;;0.10;;
6809;SDS011;3443;48.812;9.112;2024-02-14T14:58:26;0.10;;;0.10;;
6809;SDS011;3443;48.812;9.112;2024-02-14T15:01:01;0.20;;;0.20;;
6809;SDS011;3443;48.812;9.112;2024-02-14T15:03:28;0.30;;;0.20;;
6809;SDS011;3443;48.812;9.112;2024-02-14T15:05:54;1.35;;;0.20;;
6809;SDS011;3443;48.812;9.112;2024-02-14T15:08:20;0.20;;;0.20;;
6809;SDS011;3443;48.812;9.112;2024-02-14T15:10:50;0.30;;;0.20;;
6809;SDS011;3443;48.812;9.112;2024-02-14T15:13:17;1.75;;;1.10;;
6809;SDS011;3443;48.812;9.112;2024-02-14T15:15:44;0.32;;;0.30;;
6809;SDS011;3443;48.812;9.112;2024-02-14T15:18:09;0.30;;;0.20;;
6809;SDS011;3443;48.812;9.112;2024-02-14T15:20:35;0.15;;;0.15;;